createdAt,value
2023-04-30T00:01:41.690Z,99.90
2023-04-30T00:04:08.369Z,99.90
2023-04-30T00:06:35.062Z,99.90
2023-04-30T00:09:01.780Z,99.90
2023-04-30T00:11:28.393Z,99.90
2023-04-30T00:13:56.982Z,99.90
2023-04-30T00:16:23.800Z,99.90
2023-04-30T00:18:50.484Z,99.90
2023-04-30T00:21:17.144Z,99.90
2023-04-30T00:23:43.861Z,99.90
2023-04-30T00:26:10.597Z,99.90
2023-04-30T00:28:37.194Z,99.90
2023-04-30T00:31:09.060Z,99.90
2023-04-30T00:33:35.771Z,99.90
2023-04-30T00:36:02.722Z,99.90
2023-04-30T00:38:29.350Z,99.90
2023-04-30T00:40:56.010Z,99.90
2023-04-30T00:43:22.657Z,99.90
2023-04-30T00:45:49.271Z,99.90
2023-04-30T00:48:16.344Z,99.90
2023-04-30T00:50:44.667Z,99.90
2023-04-30T00:53:12.598Z,99.90
2023-04-30T00:55:43.977Z,99.90
2023-04-30T00:58:11.036Z,99.90
2023-04-30T01:00:37.731Z,99.90
2023-04-30T01:03:04.533Z,99.90
2023-04-30T01:05:31.317Z,99.90
2023-04-30T01:07:58.104Z,99.90
2023-04-30T01:10:32.257Z,99.90
2023-04-30T01:13:34.662Z,99.90
2023-04-30T01:16:23.411Z,99.90
2023-04-30T01:19:11.852Z,99.90
2023-04-30T01:21:42.169Z,99.90
2023-04-30T01:24:30.287Z,99.90
2023-04-30T01:27:19.730Z,99.90
2023-04-30T01:29:46.400Z,99.90
2023-04-30T01:32:13.019Z,99.90
2023-04-30T01:34:39.644Z,99.90
2023-04-30T01:37:12.783Z,99.90
2023-04-30T01:40:18.976Z,99.90
2023-04-30T01:43:10.423Z,99.90
2023-04-30T01:45:59.888Z,99.90
2023-04-30T01:48:55.988Z,99.90
2023-04-30T01:51:30.763Z,99.90
2023-04-30T01:54:02.056Z,99.90
2023-04-30T01:56:32.791Z,99.90
2023-04-30T01:59:00.682Z,99.90
2023-04-30T02:01:32.161Z,99.90
2023-04-30T02:03:59.509Z,99.90
2023-04-30T02:06:30.293Z,99.90
2023-04-30T02:09:02.766Z,99.90
2023-04-30T02:11:29.772Z,99.90
2023-04-30T02:13:56.475Z,99.90
2023-04-30T02:16:24.195Z,99.90
2023-04-30T02:18:51.488Z,99.90
2023-04-30T02:21:18.436Z,99.90
2023-04-30T02:23:45.363Z,99.90
2023-04-30T02:26:11.975Z,99.90
2023-04-30T02:28:38.591Z,99.90
2023-04-30T02:31:05.301Z,99.90
2023-04-30T02:33:31.954Z,99.90
2023-04-30T02:36:00.559Z,99.90
2023-04-30T02:38:27.204Z,99.90
2023-04-30T02:40:53.916Z,99.90
2023-04-30T02:43:20.565Z,99.90
2023-04-30T02:45:47.835Z,99.90
2023-04-30T02:48:14.503Z,99.90
2023-04-30T02:50:41.103Z,99.90
2023-04-30T02:53:07.784Z,99.90
2023-04-30T02:55:34.425Z,99.90
2023-04-30T02:58:01.048Z,99.90
2023-04-30T03:00:27.682Z,99.90
2023-04-30T03:02:54.487Z,99.90
2023-04-30T03:05:21.147Z,99.90
2023-04-30T03:07:47.790Z,99.90
2023-04-30T03:10:14.406Z,99.90
2023-04-30T03:12:41.068Z,99.90
2023-04-30T03:15:08.455Z,99.90
2023-04-30T03:17:35.652Z,99.90
2023-04-30T03:20:02.412Z,99.90
2023-04-30T03:22:29.007Z,99.90
2023-04-30T03:24:55.674Z,99.90
2023-04-30T03:27:22.771Z,99.90
2023-04-30T03:29:49.386Z,99.90
2023-04-30T03:32:16.023Z,99.90
2023-04-30T03:34:42.639Z,99.90
2023-04-30T03:37:09.369Z,99.90
2023-04-30T03:39:36.014Z,99.90
2023-04-30T03:42:03.530Z,99.90
2023-04-30T03:44:30.207Z,99.90
2023-04-30T03:46:56.981Z,99.90
2023-04-30T03:49:23.644Z,99.90
2023-04-30T03:51:50.314Z,99.90
2023-04-30T03:54:16.963Z,99.90
2023-04-30T03:56:44.191Z,99.90
2023-04-30T03:59:10.971Z,99.90
2023-04-30T04:01:37.731Z,99.90
2023-04-30T04:04:04.572Z,99.90
2023-04-30T04:06:31.903Z,99.90
2023-04-30T04:08:58.686Z,99.90
2023-04-30T04:11:25.584Z,99.90
2023-04-30T04:13:52.224Z,99.90
2023-04-30T04:16:18.889Z,99.90
2023-04-30T04:18:45.646Z,99.90
2023-04-30T04:21:12.851Z,99.90
2023-04-30T04:23:39.466Z,99.90
2023-04-30T04:26:06.111Z,99.90
2023-04-30T04:28:33.101Z,99.90
2023-04-30T04:31:00.024Z,99.90
2023-04-30T04:33:27.740Z,99.90
2023-04-30T04:35:54.822Z,99.90
2023-04-30T04:38:23.547Z,99.90
2023-04-30T04:40:54.296Z,99.90
2023-04-30T04:43:21.278Z,99.90
2023-04-30T04:45:48.206Z,99.90
2023-04-30T04:48:15.288Z,99.90
2023-04-30T04:50:42.014Z,99.90
2023-04-30T04:53:08.657Z,99.90
2023-04-30T04:55:35.838Z,99.90
2023-04-30T04:58:02.463Z,99.90
2023-04-30T05:00:29.831Z,99.90
2023-04-30T05:02:56.763Z,99.90
2023-04-30T05:05:23.534Z,99.90
2023-04-30T05:07:52.322Z,99.90
2023-04-30T05:10:18.981Z,99.90
2023-04-30T05:12:46.072Z,99.90
2023-04-30T05:15:12.825Z,99.90
2023-04-30T05:17:39.497Z,99.90
2023-04-30T05:20:07.309Z,99.90
2023-04-30T05:22:34.056Z,99.90
2023-04-30T05:25:00.662Z,99.90
2023-04-30T05:27:27.570Z,99.90
2023-04-30T05:29:54.369Z,99.90
2023-04-30T05:32:22.848Z,99.90
2023-04-30T05:34:49.927Z,99.90
2023-04-30T05:37:17.629Z,99.90
2023-04-30T05:39:44.275Z,99.90
2023-04-30T05:42:10.952Z,99.90
2023-04-30T05:44:37.606Z,99.90
2023-04-30T05:47:04.270Z,99.90
2023-04-30T05:49:30.959Z,99.90
2023-04-30T05:51:57.567Z,99.90
2023-04-30T05:54:24.180Z,99.90
2023-04-30T05:56:50.760Z,99.90
2023-04-30T05:59:17.432Z,99.90
2023-04-30T06:01:44.382Z,99.90
2023-04-30T06:04:11.655Z,99.90
2023-04-30T06:06:38.533Z,99.90
2023-04-30T06:09:05.244Z,99.90
2023-04-30T06:11:32.145Z,99.90
2023-04-30T06:13:59.093Z,99.90
2023-04-30T06:16:25.833Z,99.90
2023-04-30T06:18:53.841Z,99.90
2023-04-30T06:21:20.907Z,99.90
2023-04-30T06:23:47.523Z,99.90
2023-04-30T06:26:15.299Z,99.90
2023-04-30T06:28:41.974Z,99.90
2023-04-30T06:31:08.681Z,99.90
2023-04-30T06:33:35.323Z,99.90
2023-04-30T06:36:01.959Z,99.90
2023-04-30T06:38:29.086Z,99.90
2023-04-30T06:40:55.802Z,99.90
2023-04-30T06:43:22.434Z,99.90
2023-04-30T06:45:49.067Z,99.90
2023-04-30T06:48:15.820Z,99.90
2023-04-30T06:50:45.289Z,99.90
2023-04-30T06:53:12.689Z,99.90
2023-04-30T06:55:39.478Z,99.90
2023-04-30T06:58:06.210Z,99.90
2023-04-30T07:00:36.108Z,99.90
2023-04-30T07:03:04.404Z,99.90
2023-04-30T07:05:31.394Z,99.90
2023-04-30T07:07:58.940Z,99.90
2023-04-30T07:10:26.224Z,99.90
2023-04-30T07:12:52.977Z,99.90
2023-04-30T07:15:19.960Z,99.90
2023-04-30T07:17:46.632Z,99.90
2023-04-30T07:20:16.667Z,99.90
2023-04-30T07:22:45.750Z,99.90
2023-04-30T07:25:13.570Z,99.90
2023-04-30T07:27:40.853Z,99.90
2023-04-30T07:30:09.878Z,99.90
2023-04-30T07:32:41.106Z,99.90
2023-04-30T07:35:08.134Z,99.90
2023-04-30T07:37:35.964Z,99.90
2023-04-30T07:40:03.566Z,99.90
2023-04-30T07:42:30.238Z,99.90
2023-04-30T07:45:00.710Z,99.90
2023-04-30T07:47:27.430Z,99.90
2023-04-30T07:49:54.155Z,99.90
2023-04-30T07:52:21.297Z,99.90
2023-04-30T07:54:47.892Z,99.90
2023-04-30T07:57:14.597Z,99.90
2023-04-30T07:59:41.349Z,99.90
2023-04-30T08:02:09.171Z,99.90
2023-04-30T08:04:36.108Z,99.90
2023-04-30T08:07:04.306Z,99.90
2023-04-30T08:09:31.213Z,99.90
2023-04-30T08:11:57.849Z,99.90
2023-04-30T08:14:24.472Z,99.90
2023-04-30T08:16:51.162Z,99.90
2023-04-30T08:19:17.862Z,99.90
2023-04-30T08:21:44.543Z,99.90
2023-04-30T08:24:11.211Z,99.90
2023-04-30T08:26:37.822Z,99.90
2023-04-30T08:29:04.502Z,99.90
2023-04-30T08:31:31.250Z,99.90
2023-04-30T08:33:57.903Z,99.90
2023-04-30T08:36:24.568Z,99.90
2023-04-30T08:38:51.149Z,99.90
2023-04-30T08:41:18.294Z,99.90
2023-04-30T08:43:45.170Z,99.90
2023-04-30T08:46:15.302Z,99.90
2023-04-30T08:48:42.212Z,99.90
2023-04-30T08:51:08.878Z,99.90
2023-04-30T08:53:38.017Z,99.90
2023-04-30T08:56:05.513Z,99.90
2023-04-30T08:58:32.483Z,99.90
2023-04-30T09:00:59.957Z,99.90
2023-04-30T09:03:28.257Z,99.90
2023-04-30T09:05:55.682Z,99.90
2023-04-30T09:08:45.334Z,99.90
2023-04-30T09:11:29.075Z,99.90
2023-04-30T09:13:58.551Z,99.90
2023-04-30T09:16:27.537Z,99.90
2023-04-30T09:18:54.485Z,99.90
2023-04-30T09:21:37.170Z,99.90
2023-04-30T09:24:05.564Z,99.90
2023-04-30T09:26:35.087Z,99.90
2023-04-30T09:29:07.591Z,99.90
2023-04-30T09:31:36.618Z,99.90
2023-04-30T09:34:04.275Z,99.90
2023-04-30T09:36:31.844Z,99.90
2023-04-30T09:39:15.709Z,99.90
2023-04-30T09:41:43.343Z,99.90
2023-04-30T09:44:30.466Z,99.90
2023-04-30T09:46:58.732Z,99.90
2023-04-30T09:49:27.168Z,99.90
2023-04-30T09:51:58.538Z,99.90
2023-04-30T09:54:32.427Z,99.90
2023-04-30T09:57:01.656Z,99.90
2023-04-30T09:59:30.834Z,99.90
2023-04-30T10:02:01.831Z,99.90
2023-04-30T10:04:37.595Z,99.90
2023-04-30T10:07:08.944Z,99.90
2023-04-30T10:09:41.932Z,99.90
2023-04-30T10:12:14.182Z,99.90
2023-04-30T10:14:50.134Z,99.90
2023-04-30T10:17:20.752Z,99.90
2023-04-30T10:19:49.809Z,99.90
2023-04-30T10:22:16.755Z,99.90
2023-04-30T10:24:44.758Z,99.90
2023-04-30T10:27:12.061Z,99.90
2023-04-30T10:29:38.711Z,99.90
2023-04-30T10:32:06.361Z,99.90
2023-04-30T10:34:46.835Z,99.90
2023-04-30T10:37:40.166Z,99.90
2023-04-30T10:40:09.809Z,99.90
2023-04-30T10:42:39.084Z,99.90
2023-04-30T10:45:09.846Z,99.90
2023-04-30T10:47:37.769Z,99.90
2023-04-30T10:50:08.291Z,99.90
2023-04-30T10:52:34.965Z,99.90
2023-04-30T10:55:06.160Z,99.90
2023-04-30T10:57:40.351Z,99.90
2023-04-30T11:00:06.962Z,99.90
2023-04-30T11:02:41.422Z,99.90
2023-04-30T11:05:08.862Z,99.90
2023-04-30T11:07:36.160Z,99.90
2023-04-30T11:10:03.303Z,99.90
2023-04-30T11:12:31.155Z,99.90
2023-04-30T11:15:12.874Z,99.90
2023-04-30T11:17:40.054Z,99.90
2023-04-30T11:20:12.148Z,99.90
2023-04-30T11:22:38.966Z,99.90
2023-04-30T11:25:09.288Z,99.90
2023-04-30T11:27:37.912Z,99.90
2023-04-30T11:30:11.746Z,99.90
2023-04-30T11:32:39.536Z,99.90
2023-04-30T11:35:07.420Z,99.90
2023-04-30T11:37:37.797Z,99.90
2023-04-30T11:40:07.726Z,99.90
2023-04-30T11:42:34.998Z,99.90
2023-04-30T11:45:21.823Z,99.90
2023-04-30T11:47:50.484Z,99.90
2023-04-30T11:50:28.877Z,99.90
2023-04-30T11:52:57.312Z,99.90
2023-04-30T11:55:26.350Z,99.90
2023-04-30T11:57:59.880Z,99.90
2023-04-30T12:00:28.021Z,99.90
2023-04-30T12:02:56.252Z,99.90
2023-04-30T12:05:24.884Z,99.90
2023-04-30T12:08:04.639Z,99.90
2023-04-30T12:10:32.470Z,99.90
2023-04-30T12:12:59.172Z,99.90
2023-04-30T12:15:27.466Z,99.90
2023-04-30T12:17:56.125Z,99.90
2023-04-30T12:20:25.616Z,99.90
2023-04-30T12:22:52.496Z,99.90
2023-04-30T12:25:21.185Z,99.90
2023-04-30T12:27:53.146Z,99.90
2023-04-30T12:30:21.861Z,99.90
2023-04-30T12:32:53.208Z,99.90
2023-04-30T12:35:22.530Z,99.90
2023-04-30T12:37:53.929Z,99.90
2023-04-30T12:40:22.243Z,99.90
2023-04-30T12:42:48.981Z,99.90
2023-04-30T12:45:51.004Z,99.90
2023-04-30T12:48:19.581Z,99.90
2023-04-30T12:50:56.366Z,99.90
2023-04-30T12:53:23.982Z,99.90
2023-04-30T12:56:15.302Z,99.90
2023-04-30T13:01:13.654Z,99.90
2023-04-30T13:03:40.554Z,99.90
2023-04-30T13:06:07.458Z,99.90
2023-04-30T13:08:45.705Z,99.90
2023-04-30T13:11:21.840Z,99.90
2023-04-30T13:13:48.514Z,99.90
2023-04-30T13:16:15.222Z,99.90
2023-04-30T13:18:42.003Z,99.90
2023-04-30T13:21:09.209Z,99.90
2023-04-30T13:23:48.524Z,99.90
2023-04-30T13:26:18.969Z,99.90
2023-04-30T13:28:45.643Z,99.90
2023-04-30T13:31:12.355Z,99.90
2023-04-30T13:33:39.167Z,99.90
2023-04-30T13:36:08.046Z,99.90
2023-04-30T13:38:34.691Z,99.90
2023-04-30T13:41:01.407Z,99.90
2023-04-30T13:43:28.355Z,99.90
2023-04-30T13:45:55.065Z,99.90
2023-04-30T13:48:21.823Z,99.90
2023-04-30T13:50:48.474Z,99.90
2023-04-30T13:53:15.261Z,99.90
2023-04-30T13:55:41.975Z,99.90
2023-04-30T13:58:08.748Z,99.90
2023-04-30T14:00:35.416Z,99.90
2023-04-30T14:03:02.172Z,99.90
2023-04-30T14:05:29.017Z,99.90
2023-04-30T14:07:55.771Z,99.90
2023-04-30T14:10:22.442Z,99.90
2023-04-30T14:12:49.044Z,99.90
2023-04-30T14:15:16.306Z,99.90
2023-04-30T14:17:43.223Z,99.90
2023-04-30T14:20:11.233Z,99.90
2023-04-30T14:22:38.768Z,99.90
2023-04-30T14:25:06.291Z,99.90
2023-04-30T14:27:33.295Z,99.90
2023-04-30T14:29:59.975Z,99.90
2023-04-30T14:32:27.184Z,99.90
2023-04-30T14:34:54.350Z,99.90
2023-04-30T14:37:21.107Z,99.90
2023-04-30T14:39:47.746Z,99.90
2023-04-30T14:42:14.514Z,99.90
2023-04-30T14:44:41.230Z,99.90
2023-04-30T14:47:08.049Z,99.90
2023-04-30T14:49:34.770Z,99.90
2023-04-30T14:52:01.836Z,99.90
2023-04-30T14:54:28.525Z,99.90
2023-04-30T14:56:55.507Z,99.30
2023-04-30T14:59:22.366Z,99.90
2023-04-30T15:01:49.166Z,99.10
2023-04-30T15:04:15.997Z,99.90
2023-04-30T15:06:43.165Z,99.90
2023-04-30T15:09:11.384Z,99.90
2023-04-30T15:11:38.015Z,99.90
2023-04-30T15:14:04.700Z,99.90
2023-04-30T15:16:31.490Z,99.90
2023-04-30T15:18:58.974Z,99.90
2023-04-30T15:21:26.581Z,99.90
2023-04-30T15:23:53.353Z,99.90
2023-04-30T15:26:20.087Z,99.10
2023-04-30T15:28:46.728Z,98.80
2023-04-30T15:31:13.397Z,98.80
2023-04-30T15:33:42.051Z,99.20
2023-04-30T15:36:10.871Z,99.60
2023-04-30T15:38:39.662Z,99.70
2023-04-30T15:41:06.248Z,99.20
2023-04-30T15:43:32.953Z,99.90
2023-04-30T15:45:59.721Z,99.90
2023-04-30T15:48:26.417Z,99.90
2023-04-30T15:50:53.174Z,99.60
2023-04-30T15:53:19.818Z,99.10
2023-04-30T15:55:48.634Z,98.80
2023-04-30T15:58:16.089Z,98.10
2023-04-30T16:00:43.654Z,97.70
2023-04-30T16:03:10.608Z,97.70
2023-04-30T16:05:40.292Z,97.20
2023-04-30T16:08:10.492Z,97.50
2023-04-30T16:10:38.589Z,97.70
2023-04-30T16:13:05.332Z,97.90
2023-04-30T16:15:32.417Z,98.70
2023-04-30T16:17:59.178Z,99.30
2023-04-30T16:20:27.206Z,99.50
2023-04-30T16:22:55.177Z,99.60
2023-04-30T16:25:22.564Z,98.70
2023-04-30T16:27:49.763Z,98.30
2023-04-30T16:30:16.500Z,97.50
2023-04-30T16:32:44.234Z,96.40
2023-04-30T16:35:11.144Z,95.60
2023-04-30T16:37:37.810Z,94.90
2023-04-30T16:40:06.304Z,95.00
2023-04-30T16:42:33.845Z,95.30
2023-04-30T16:45:01.513Z,94.90
2023-04-30T16:47:28.298Z,95.00
2023-04-30T16:49:55.941Z,95.40
2023-04-30T16:52:22.846Z,95.90
2023-04-30T16:54:49.486Z,96.90
2023-04-30T16:57:16.418Z,97.60
2023-04-30T16:59:43.095Z,98.20
2023-04-30T17:02:09.912Z,99.20
2023-04-30T17:04:36.630Z,99.80
2023-04-30T17:07:03.422Z,99.90
2023-04-30T17:09:30.279Z,99.90
2023-04-30T17:11:57.019Z,99.90
2023-04-30T17:14:23.715Z,99.90
2023-04-30T17:16:50.402Z,99.90
2023-04-30T17:19:18.025Z,99.90
2023-04-30T17:21:44.729Z,99.90
2023-04-30T17:24:11.460Z,99.90
2023-04-30T17:26:38.158Z,99.90
2023-04-30T17:29:06.056Z,99.90
2023-04-30T17:31:32.964Z,99.90
2023-04-30T17:34:00.228Z,99.90
2023-04-30T17:36:30.136Z,99.90
2023-04-30T17:38:57.023Z,99.90
2023-04-30T17:41:24.075Z,99.90
2023-04-30T17:43:51.631Z,99.90
2023-04-30T17:46:18.406Z,99.90
2023-04-30T17:48:45.113Z,99.90
2023-04-30T17:51:12.212Z,99.90
2023-04-30T17:53:38.900Z,99.90
2023-04-30T17:56:05.976Z,99.90
2023-04-30T17:58:32.885Z,99.90
2023-04-30T18:01:01.530Z,99.90
2023-04-30T18:03:28.589Z,99.90
2023-04-30T18:05:55.476Z,99.90
2023-04-30T18:08:22.259Z,99.90
2023-04-30T18:10:48.945Z,99.90
2023-04-30T18:13:15.684Z,99.90
2023-04-30T18:15:42.673Z,99.90
2023-04-30T18:18:09.828Z,99.90
2023-04-30T18:20:36.941Z,99.90
2023-04-30T18:23:05.046Z,99.90
2023-04-30T18:25:34.236Z,99.90
2023-04-30T18:28:01.331Z,99.90
2023-04-30T18:30:28.089Z,99.90
2023-04-30T18:32:54.861Z,99.90
2023-04-30T18:35:22.110Z,99.90
2023-04-30T18:37:49.248Z,99.90
2023-04-30T18:40:16.200Z,99.90
2023-04-30T18:42:42.819Z,99.90
2023-04-30T18:45:11.395Z,99.90
2023-04-30T18:47:38.239Z,99.90
2023-04-30T18:50:06.993Z,99.90
2023-04-30T18:52:33.774Z,99.90
2023-04-30T18:55:02.770Z,99.90
2023-04-30T18:57:29.557Z,99.90
2023-04-30T18:59:56.639Z,99.90
2023-04-30T19:02:24.068Z,99.90
2023-04-30T19:04:52.164Z,99.90
2023-04-30T19:07:18.816Z,99.90
2023-04-30T19:09:48.206Z,99.90
2023-04-30T19:12:17.076Z,99.90
2023-04-30T19:14:44.673Z,99.90
2023-04-30T19:17:12.421Z,99.90
2023-04-30T19:19:39.275Z,99.90
2023-04-30T19:22:06.368Z,99.90
2023-04-30T19:24:33.052Z,99.90
2023-04-30T19:27:03.977Z,99.90
2023-04-30T19:29:31.174Z,99.90
2023-04-30T19:31:58.878Z,99.90
2023-04-30T19:34:28.392Z,99.90
2023-04-30T19:36:55.366Z,99.90
2023-04-30T19:39:22.141Z,99.90
2023-04-30T19:41:49.709Z,99.90
2023-04-30T19:44:19.958Z,99.90
2023-04-30T19:46:49.576Z,99.90
2023-04-30T19:49:16.345Z,99.90
2023-04-30T19:51:43.105Z,99.90
2023-04-30T19:54:14.301Z,99.90
2023-04-30T19:56:41.816Z,99.90
2023-04-30T19:59:09.363Z,99.90
2023-04-30T20:01:36.735Z,99.90
2023-04-30T20:04:04.076Z,99.90
2023-04-30T20:06:31.650Z,99.90
2023-04-30T20:09:01.962Z,99.90
2023-04-30T20:11:28.885Z,99.90
2023-04-30T20:13:56.310Z,99.90
2023-04-30T20:16:23.148Z,99.90
2023-04-30T20:18:49.929Z,99.90
2023-04-30T20:21:17.574Z,99.90
2023-04-30T20:23:45.464Z,99.90
2023-04-30T20:26:13.163Z,99.90
2023-04-30T20:28:39.852Z,99.90
2023-04-30T20:31:07.371Z,99.90
2023-04-30T20:33:34.072Z,99.90
2023-04-30T20:36:02.457Z,99.90
2023-04-30T20:38:29.541Z,99.90
2023-04-30T20:41:00.325Z,99.90
2023-04-30T20:43:27.015Z,99.90
2023-04-30T20:46:00.660Z,99.90
2023-04-30T20:48:30.523Z,99.90
2023-04-30T20:50:57.205Z,99.90
2023-04-30T20:53:23.969Z,99.90
2023-04-30T20:55:51.336Z,99.90
2023-04-30T20:58:18.137Z,99.90
2023-04-30T21:00:44.869Z,99.90
2023-04-30T21:03:11.780Z,99.90
2023-04-30T21:05:40.725Z,99.90
2023-04-30T21:08:07.469Z,99.90
2023-04-30T21:10:36.529Z,99.90
2023-04-30T21:13:05.264Z,99.90
2023-04-30T21:15:34.338Z,99.90
2023-04-30T21:18:01.321Z,99.90
2023-04-30T21:20:28.254Z,99.90
2023-04-30T21:22:55.102Z,99.90
2023-04-30T21:25:22.270Z,99.90
2023-04-30T21:27:49.029Z,99.90
2023-04-30T21:30:16.892Z,99.90
2023-04-30T21:32:46.983Z,99.90
2023-04-30T21:35:14.422Z,99.90
2023-04-30T21:37:41.913Z,99.90
2023-04-30T21:40:09.034Z,99.90
2023-04-30T21:42:35.892Z,99.90
2023-04-30T21:45:02.767Z,99.90
2023-04-30T21:47:30.363Z,99.90
2023-04-30T21:49:58.668Z,99.90
2023-04-30T21:52:25.883Z,99.90
2023-04-30T21:54:53.092Z,99.90
2023-04-30T21:57:20.594Z,99.90
2023-04-30T21:59:48.062Z,99.90
2023-04-30T22:02:23.945Z,99.90
2023-04-30T22:04:51.616Z,99.90
2023-04-30T22:07:18.300Z,99.90
2023-04-30T22:09:45.382Z,99.90
2023-04-30T22:12:12.135Z,99.90
2023-04-30T22:14:39.205Z,99.90
2023-04-30T22:17:06.021Z,99.90
2023-04-30T22:19:32.670Z,99.90
2023-04-30T22:21:59.321Z,99.90
2023-04-30T22:24:25.970Z,99.90
2023-04-30T22:26:53.739Z,99.90
2023-04-30T22:29:20.444Z,99.90
2023-04-30T22:31:47.450Z,99.90
2023-04-30T22:34:15.372Z,99.90
2023-04-30T22:36:43.521Z,99.90
2023-04-30T22:39:10.253Z,99.90
2023-04-30T22:41:37.048Z,99.90
2023-04-30T22:44:05.268Z,99.90
2023-04-30T22:46:33.511Z,99.90
2023-04-30T22:49:01.077Z,99.90
2023-04-30T22:51:27.914Z,99.90
2023-04-30T22:53:56.326Z,99.90
2023-04-30T22:56:23.324Z,99.90
2023-04-30T22:58:50.048Z,99.90
2023-04-30T23:01:17.677Z,99.90
2023-04-30T23:03:47.174Z,99.90
2023-04-30T23:06:15.493Z,99.90
2023-04-30T23:08:42.139Z,99.90
2023-04-30T23:11:08.913Z,99.90
2023-04-30T23:13:35.638Z,99.90
2023-04-30T23:16:05.414Z,99.90
2023-04-30T23:18:32.339Z,99.90
2023-04-30T23:20:59.148Z,99.90
2023-04-30T23:23:26.472Z,99.90
2023-04-30T23:25:54.215Z,99.90
2023-04-30T23:28:21.792Z,99.90
2023-04-30T23:30:55.037Z,99.90
2023-04-30T23:33:21.952Z,99.90
2023-04-30T23:35:48.856Z,99.90
2023-04-30T23:38:16.307Z,99.90
2023-04-30T23:40:43.465Z,99.90
2023-04-30T23:43:11.520Z,99.90
2023-04-30T23:45:42.316Z,99.90
2023-04-30T23:48:10.376Z,99.90
2023-04-30T23:50:38.102Z,99.90
2023-04-30T23:53:04.827Z,99.90
2023-04-30T23:55:31.528Z,99.90
2023-04-30T23:57:58.186Z,99.90
